sensor_id;sensor_type;location;lat;lon;timestamp;P1;durP1;ratioP1;P2;durP2;ratioP2
72201;SDS011;60105;54.956;73.412;2022-12-18T00:01:30;16.60;;;7.68;;
72201;SDS011;60105;54.956;73.412;2022-12-18T00:04:01;16.15;;;8.20;;
72201;SDS011;60105;54.956;73.412;2022-12-18T00:06:31;16.23;;;9.35;;
72201;SDS011;60105;54.956;73.412;2022-12-18T00:09:02;15.40;;;9.00;;
72201;SDS011;60105;54.956;73.412;2022-12-18T00:11:34;10.45;;;8.02;;
72201;SDS011;60105;54.956;73.412;2022-12-18T00:14:01;12.77;;;7.95;;
72201;SDS011;60105;54.956;73.412;2022-12-18T00:16:27;20.70;;;9.07;;
72201;SDS011;60105;54.956;73.412;2022-12-18T00:18:56;16.13;;;7.65;;
72201;SDS011;60105;54.956;73.412;2022-12-18T00:21:23;25.30;;;8.75;;
72201;SDS011;60105;54.956;73.412;2022-12-18T00:23:49;17.83;;;8.73;;
72201;SDS011;60105;54.956;73.412;2022-12-18T00:26:17;16.70;;;8.93;;
72201;SDS011;60105;54.956;73.412;2022-12-18T00:28:45;9.55;;;6.90;;
72201;SDS011;60105;54.956;73.412;2022-12-18T00:31:15;15.70;;;9.02;;
72201;SDS011;60105;54.956;73.412;2022-12-18T00:33:50;19.30;;;8.03;;
72201;SDS011;60105;54.956;73.412;2022-12-18T00:36:25;20.05;;;8.50;;
72201;SDS011;60105;54.956;73.412;2022-12-18T00:38:57;19.15;;;9.32;;
72201;SDS011;60105;54.956;73.412;2022-12-18T00:41:24;14.33;;;8.23;;
72201;SDS011;60105;54.956;73.412;2022-12-18T00:44:10;18.42;;;8.13;;
72201;SDS011;60105;54.956;73.412;2022-12-18T00:46:44;21.10;;;10.70;;
72201;SDS011;60105;54.956;73.412;2022-12-18T00:49:12;12.50;;;7.13;;
72201;SDS011;60105;54.956;73.412;2022-12-18T00:51:43;17.77;;;8.98;;
72201;SDS011;60105;54.956;73.412;2022-12-18T00:54:14;22.40;;;8.10;;
72201;SDS011;60105;54.956;73.412;2022-12-18T00:56:41;11.85;;;8.15;;
72201;SDS011;60105;54.956;73.412;2022-12-18T00:59:07;18.40;;;10.13;;
72201;SDS011;60105;54.956;73.412;2022-12-18T01:01:33;23.52;;;10.02;;
72201;SDS011;60105;54.956;73.412;2022-12-18T01:04:00;16.58;;;7.72;;
72201;SDS011;60105;54.956;73.412;2022-12-18T01:06:28;16.53;;;10.23;;
72201;SDS011;60105;54.956;73.412;2022-12-18T01:08:54;17.30;;;9.80;;
72201;SDS011;60105;54.956;73.412;2022-12-18T01:11:21;14.32;;;10.02;;
72201;SDS011;60105;54.956;73.412;2022-12-18T01:13:48;20.75;;;9.57;;
72201;SDS011;60105;54.956;73.412;2022-12-18T01:16:14;17.30;;;9.98;;
72201;SDS011;60105;54.956;73.412;2022-12-18T01:18:42;19.13;;;10.13;;
72201;SDS011;60105;54.956;73.412;2022-12-18T01:21:09;13.32;;;8.13;;
72201;SDS011;60105;54.956;73.412;2022-12-18T01:23:37;22.77;;;8.27;;
72201;SDS011;60105;54.956;73.412;2022-12-18T01:26:07;14.30;;;8.68;;
72201;SDS011;60105;54.956;73.412;2022-12-18T01:28:35;10.77;;;7.75;;
72201;SDS011;60105;54.956;73.412;2022-12-18T01:31:15;10.73;;;8.10;;
72201;SDS011;60105;54.956;73.412;2022-12-18T01:33:41;15.80;;;8.77;;
72201;SDS011;60105;54.956;73.412;2022-12-18T01:36:08;23.55;;;9.10;;
72201;SDS011;60105;54.956;73.412;2022-12-18T01:38:40;13.68;;;8.40;;
72201;SDS011;60105;54.956;73.412;2022-12-18T01:41:11;18.50;;;8.03;;
72201;SDS011;60105;54.956;73.412;2022-12-18T01:43:57;15.68;;;8.57;;
72201;SDS011;60105;54.956;73.412;2022-12-18T01:46:24;12.68;;;8.52;;
72201;SDS011;60105;54.956;73.412;2022-12-18T01:48:57;16.80;;;8.97;;
72201;SDS011;60105;54.956;73.412;2022-12-18T01:51:27;18.90;;;8.52;;
72201;SDS011;60105;54.956;73.412;2022-12-18T01:53:55;12.73;;;8.05;;
72201;SDS011;60105;54.956;73.412;2022-12-18T01:56:23;14.18;;;9.70;;
72201;SDS011;60105;54.956;73.412;2022-12-18T01:58:57;21.70;;;8.50;;
72201;SDS011;60105;54.956;73.412;2022-12-18T02:01:26;18.65;;;8.75;;
72201;SDS011;60105;54.956;73.412;2022-12-18T02:03:56;22.50;;;7.97;;
72201;SDS011;60105;54.956;73.412;2022-12-18T02:06:40;17.87;;;8.20;;
72201;SDS011;60105;54.956;73.412;2022-12-18T02:14:28;11.80;;;7.67;;
72201;SDS011;60105;54.956;73.412;2022-12-18T02:17:06;20.48;;;8.80;;
72201;SDS011;60105;54.956;73.412;2022-12-18T02:19:43;12.48;;;8.65;;
72201;SDS011;60105;54.956;73.412;2022-12-18T02:22:25;17.45;;;8.98;;
72201;SDS011;60105;54.956;73.412;2022-12-18T02:24:57;21.02;;;9.73;;
72201;SDS011;60105;54.956;73.412;2022-12-18T02:27:30;12.13;;;8.38;;
72201;SDS011;60105;54.956;73.412;2022-12-18T02:30:04;21.65;;;11.13;;
72201;SDS011;60105;54.956;73.412;2022-12-18T02:32:34;13.87;;;8.73;;
72201;SDS011;60105;54.956;73.412;2022-12-18T02:35:04;20.52;;;9.50;;
72201;SDS011;60105;54.956;73.412;2022-12-18T02:37:43;16.35;;;7.90;;
72201;SDS011;60105;54.956;73.412;2022-12-18T02:40:12;14.53;;;8.83;;
72201;SDS011;60105;54.956;73.412;2022-12-18T02:42:40;17.38;;;8.85;;
72201;SDS011;60105;54.956;73.412;2022-12-18T02:45:14;12.70;;;7.30;;
72201;SDS011;60105;54.956;73.412;2022-12-18T02:47:42;17.08;;;10.18;;
72201;SDS011;60105;54.956;73.412;2022-12-18T02:56:14;14.00;;;9.55;;
72201;SDS011;60105;54.956;73.412;2022-12-18T02:58:59;20.83;;;10.77;;
72201;SDS011;60105;54.956;73.412;2022-12-18T03:07:11;18.00;;;10.43;;
72201;SDS011;60105;54.956;73.412;2022-12-18T03:09:45;19.88;;;10.40;;
72201;SDS011;60105;54.956;73.412;2022-12-18T03:15:13;21.48;;;11.65;;
72201;SDS011;60105;54.956;73.412;2022-12-18T03:17:42;17.60;;;9.98;;
72201;SDS011;60105;54.956;73.412;2022-12-18T03:20:14;26.85;;;12.25;;
72201;SDS011;60105;54.956;73.412;2022-12-18T03:22:44;24.90;;;12.80;;
72201;SDS011;60105;54.956;73.412;2022-12-18T03:25:15;23.40;;;14.70;;
72201;SDS011;60105;54.956;73.412;2022-12-18T03:27:46;26.55;;;12.88;;
72201;SDS011;60105;54.956;73.412;2022-12-18T03:30:16;34.60;;;14.80;;
72201;SDS011;60105;54.956;73.412;2022-12-18T03:32:53;30.77;;;15.67;;
72201;SDS011;60105;54.956;73.412;2022-12-18T03:35:29;37.65;;;15.20;;
72201;SDS011;60105;54.956;73.412;2022-12-18T03:38:00;34.97;;;15.60;;
72201;SDS011;60105;54.956;73.412;2022-12-18T03:40:33;33.92;;;16.13;;
72201;SDS011;60105;54.956;73.412;2022-12-18T03:43:19;26.58;;;16.45;;
72201;SDS011;60105;54.956;73.412;2022-12-18T03:45:53;38.40;;;16.90;;
72201;SDS011;60105;54.956;73.412;2022-12-18T03:48:31;43.80;;;18.88;;
72201;SDS011;60105;54.956;73.412;2022-12-18T03:51:15;36.70;;;16.90;;
72201;SDS011;60105;54.956;73.412;2022-12-18T03:56:29;36.15;;;17.48;;
72201;SDS011;60105;54.956;73.412;2022-12-18T03:59:00;56.30;;;19.63;;
72201;SDS011;60105;54.956;73.412;2022-12-18T04:01:35;44.97;;;16.88;;
72201;SDS011;60105;54.956;73.412;2022-12-18T04:04:05;43.42;;;19.67;;
72201;SDS011;60105;54.956;73.412;2022-12-18T04:06:37;66.13;;;22.02;;
72201;SDS011;60105;54.956;73.412;2022-12-18T04:09:07;55.67;;;24.27;;
72201;SDS011;60105;54.956;73.412;2022-12-18T04:11:38;77.35;;;29.67;;
72201;SDS011;60105;54.956;73.412;2022-12-18T04:14:07;70.10;;;32.10;;
72201;SDS011;60105;54.956;73.412;2022-12-18T04:16:35;71.77;;;30.73;;
72201;SDS011;60105;54.956;73.412;2022-12-18T04:19:10;65.15;;;29.45;;
72201;SDS011;60105;54.956;73.412;2022-12-18T04:21:39;92.32;;;34.75;;
72201;SDS011;60105;54.956;73.412;2022-12-18T04:24:09;64.87;;;30.67;;
72201;SDS011;60105;54.956;73.412;2022-12-18T04:26:38;87.47;;;38.97;;
72201;SDS011;60105;54.956;73.412;2022-12-18T04:29:16;115.47;;;48.63;;
72201;SDS011;60105;54.956;73.412;2022-12-18T04:31:43;99.32;;;39.78;;
72201;SDS011;60105;54.956;73.412;2022-12-18T04:34:10;81.47;;;36.47;;
72201;SDS011;60105;54.956;73.412;2022-12-18T04:36:42;79.63;;;31.60;;
72201;SDS011;60105;54.956;73.412;2022-12-18T04:39:09;73.20;;;33.22;;
72201;SDS011;60105;54.956;73.412;2022-12-18T04:41:35;82.43;;;33.30;;
72201;SDS011;60105;54.956;73.412;2022-12-18T04:44:02;63.47;;;32.75;;
72201;SDS011;60105;54.956;73.412;2022-12-18T04:46:29;68.35;;;29.80;;
72201;SDS011;60105;54.956;73.412;2022-12-18T04:48:56;79.30;;;38.00;;
72201;SDS011;60105;54.956;73.412;2022-12-18T04:51:22;59.88;;;29.63;;
72201;SDS011;60105;54.956;73.412;2022-12-18T04:53:58;91.50;;;35.28;;
72201;SDS011;60105;54.956;73.412;2022-12-18T04:56:24;78.40;;;35.72;;
72201;SDS011;60105;54.956;73.412;2022-12-18T04:58:51;75.40;;;38.70;;
72201;SDS011;60105;54.956;73.412;2022-12-18T05:01:23;83.88;;;38.75;;
72201;SDS011;60105;54.956;73.412;2022-12-18T05:03:50;82.85;;;39.83;;
72201;SDS011;60105;54.956;73.412;2022-12-18T05:06:17;72.83;;;33.47;;
72201;SDS011;60105;54.956;73.412;2022-12-18T05:08:53;74.45;;;33.70;;
72201;SDS011;60105;54.956;73.412;2022-12-18T05:11:20;76.03;;;30.55;;
72201;SDS011;60105;54.956;73.412;2022-12-18T05:13:46;69.73;;;31.50;;
72201;SDS011;60105;54.956;73.412;2022-12-18T05:16:13;72.72;;;34.92;;
72201;SDS011;60105;54.956;73.412;2022-12-18T05:18:39;59.47;;;31.48;;
72201;SDS011;60105;54.956;73.412;2022-12-18T05:21:06;76.32;;;31.60;;
72201;SDS011;60105;54.956;73.412;2022-12-18T05:23:35;61.28;;;31.58;;
72201;SDS011;60105;54.956;73.412;2022-12-18T05:26:03;68.93;;;29.35;;
72201;SDS011;60105;54.956;73.412;2022-12-18T05:28:31;60.63;;;30.05;;
72201;SDS011;60105;54.956;73.412;2022-12-18T05:30:59;70.83;;;29.77;;
72201;SDS011;60105;54.956;73.412;2022-12-18T05:33:32;58.83;;;32.22;;
72201;SDS011;60105;54.956;73.412;2022-12-18T05:36:00;67.15;;;34.50;;
72201;SDS011;60105;54.956;73.412;2022-12-18T05:38:28;75.85;;;35.88;;
72201;SDS011;60105;54.956;73.412;2022-12-18T05:40:56;82.53;;;36.45;;
72201;SDS011;60105;54.956;73.412;2022-12-18T05:43:36;80.95;;;35.35;;
72201;SDS011;60105;54.956;73.412;2022-12-18T05:46:04;84.47;;;34.03;;
72201;SDS011;60105;54.956;73.412;2022-12-18T05:48:36;56.17;;;33.73;;
72201;SDS011;60105;54.956;73.412;2022-12-18T05:51:03;82.15;;;35.40;;
72201;SDS011;60105;54.956;73.412;2022-12-18T05:53:35;73.57;;;33.33;;
72201;SDS011;60105;54.956;73.412;2022-12-18T05:56:03;65.22;;;29.90;;
72201;SDS011;60105;54.956;73.412;2022-12-18T05:58:30;73.57;;;31.63;;
72201;SDS011;60105;54.956;73.412;2022-12-18T06:00:57;61.75;;;28.38;;
72201;SDS011;60105;54.956;73.412;2022-12-18T06:03:31;71.25;;;31.35;;
72201;SDS011;60105;54.956;73.412;2022-12-18T06:05:57;67.53;;;28.77;;
72201;SDS011;60105;54.956;73.412;2022-12-18T06:08:23;72.53;;;31.10;;
72201;SDS011;60105;54.956;73.412;2022-12-18T06:10:50;60.22;;;29.08;;
72201;SDS011;60105;54.956;73.412;2022-12-18T06:13:18;66.82;;;31.02;;
72201;SDS011;60105;54.956;73.412;2022-12-18T06:15:45;74.05;;;31.17;;
72201;SDS011;60105;54.956;73.412;2022-12-18T06:18:12;78.43;;;32.03;;
72201;SDS011;60105;54.956;73.412;2022-12-18T06:20:38;71.22;;;33.85;;
72201;SDS011;60105;54.956;73.412;2022-12-18T06:23:07;81.80;;;34.72;;
72201;SDS011;60105;54.956;73.412;2022-12-18T06:25:36;75.28;;;33.97;;
72201;SDS011;60105;54.956;73.412;2022-12-18T06:28:04;76.82;;;34.20;;
72201;SDS011;60105;54.956;73.412;2022-12-18T06:30:30;77.80;;;33.33;;
72201;SDS011;60105;54.956;73.412;2022-12-18T06:32:57;85.40;;;33.95;;
72201;SDS011;60105;54.956;73.412;2022-12-18T06:35:23;70.00;;;33.28;;
72201;SDS011;60105;54.956;73.412;2022-12-18T06:37:49;81.67;;;37.20;;
72201;SDS011;60105;54.956;73.412;2022-12-18T06:40:16;76.55;;;35.95;;
72201;SDS011;60105;54.956;73.412;2022-12-18T06:42:42;84.60;;;38.25;;
72201;SDS011;60105;54.956;73.412;2022-12-18T06:45:09;80.95;;;36.05;;
72201;SDS011;60105;54.956;73.412;2022-12-18T06:47:35;78.27;;;36.97;;
72201;SDS011;60105;54.956;73.412;2022-12-18T06:50:02;88.38;;;37.20;;
72201;SDS011;60105;54.956;73.412;2022-12-18T06:52:28;88.63;;;38.97;;
72201;SDS011;60105;54.956;73.412;2022-12-18T06:54:57;84.75;;;32.70;;
72201;SDS011;60105;54.956;73.412;2022-12-18T06:57:23;73.55;;;36.67;;
72201;SDS011;60105;54.956;73.412;2022-12-18T06:59:53;91.87;;;34.10;;
72201;SDS011;60105;54.956;73.412;2022-12-18T07:02:20;79.03;;;35.17;;
72201;SDS011;60105;54.956;73.412;2022-12-18T07:04:46;74.05;;;32.47;;
72201;SDS011;60105;54.956;73.412;2022-12-18T07:07:12;74.40;;;34.58;;
72201;SDS011;60105;54.956;73.412;2022-12-18T07:09:38;82.40;;;34.90;;
72201;SDS011;60105;54.956;73.412;2022-12-18T07:12:04;78.88;;;33.53;;
72201;SDS011;60105;54.956;73.412;2022-12-18T07:14:32;82.15;;;33.80;;
72201;SDS011;60105;54.956;73.412;2022-12-18T07:16:58;62.60;;;27.17;;
72201;SDS011;60105;54.956;73.412;2022-12-18T07:19:24;67.90;;;29.48;;
72201;SDS011;60105;54.956;73.412;2022-12-18T07:21:51;68.43;;;27.53;;
72201;SDS011;60105;54.956;73.412;2022-12-18T07:24:17;64.50;;;27.27;;
72201;SDS011;60105;54.956;73.412;2022-12-18T07:26:45;62.75;;;29.52;;
72201;SDS011;60105;54.956;73.412;2022-12-18T07:29:21;58.40;;;28.17;;
72201;SDS011;60105;54.956;73.412;2022-12-18T07:31:48;78.53;;;30.38;;
72201;SDS011;60105;54.956;73.412;2022-12-18T07:34:14;70.73;;;30.67;;
72201;SDS011;60105;54.956;73.412;2022-12-18T07:36:50;59.22;;;27.70;;
72201;SDS011;60105;54.956;73.412;2022-12-18T07:39:17;72.75;;;29.38;;
72201;SDS011;60105;54.956;73.412;2022-12-18T07:41:43;72.60;;;27.20;;
72201;SDS011;60105;54.956;73.412;2022-12-18T07:44:29;72.18;;;29.13;;
72201;SDS011;60105;54.956;73.412;2022-12-18T07:46:55;77.50;;;29.33;;
72201;SDS011;60105;54.956;73.412;2022-12-18T07:49:32;66.60;;;28.98;;
72201;SDS011;60105;54.956;73.412;2022-12-18T07:52:08;67.35;;;28.25;;
72201;SDS011;60105;54.956;73.412;2022-12-18T07:54:40;65.43;;;28.23;;
72201;SDS011;60105;54.956;73.412;2022-12-18T07:57:07;59.40;;;26.23;;
72201;SDS011;60105;54.956;73.412;2022-12-18T07:59:39;59.60;;;24.93;;
72201;SDS011;60105;54.956;73.412;2022-12-18T08:02:06;59.50;;;25.30;;
72201;SDS011;60105;54.956;73.412;2022-12-18T08:04:32;53.65;;;25.38;;
72201;SDS011;60105;54.956;73.412;2022-12-18T08:06:59;58.50;;;26.98;;
72201;SDS011;60105;54.956;73.412;2022-12-18T08:09:25;43.35;;;22.35;;
72201;SDS011;60105;54.956;73.412;2022-12-18T08:11:51;59.20;;;24.50;;
72201;SDS011;60105;54.956;73.412;2022-12-18T08:14:22;59.97;;;26.05;;
72201;SDS011;60105;54.956;73.412;2022-12-18T08:16:48;61.22;;;27.58;;
72201;SDS011;60105;54.956;73.412;2022-12-18T08:19:14;59.63;;;26.67;;
72201;SDS011;60105;54.956;73.412;2022-12-18T08:21:41;52.17;;;23.98;;
72201;SDS011;60105;54.956;73.412;2022-12-18T08:24:08;56.87;;;23.20;;
72201;SDS011;60105;54.956;73.412;2022-12-18T08:26:36;49.08;;;21.55;;
72201;SDS011;60105;54.956;73.412;2022-12-18T08:29:02;47.00;;;23.55;;
72201;SDS011;60105;54.956;73.412;2022-12-18T08:31:29;53.53;;;22.58;;
72201;SDS011;60105;54.956;73.412;2022-12-18T08:33:56;49.45;;;21.33;;
72201;SDS011;60105;54.956;73.412;2022-12-18T08:36:23;46.80;;;21.20;;
72201;SDS011;60105;54.956;73.412;2022-12-18T08:38:50;51.03;;;20.92;;
72201;SDS011;60105;54.956;73.412;2022-12-18T08:41:17;55.25;;;23.33;;
72201;SDS011;60105;54.956;73.412;2022-12-18T08:43:44;44.83;;;20.67;;
72201;SDS011;60105;54.956;73.412;2022-12-18T08:46:32;41.22;;;19.95;;
72201;SDS011;60105;54.956;73.412;2022-12-18T08:49:01;41.47;;;20.80;;
72201;SDS011;60105;54.956;73.412;2022-12-18T08:51:27;40.42;;;19.15;;
72201;SDS011;60105;54.956;73.412;2022-12-18T08:53:53;47.47;;;19.98;;
72201;SDS011;60105;54.956;73.412;2022-12-18T08:56:20;41.65;;;20.30;;
72201;SDS011;60105;54.956;73.412;2022-12-18T08:58:54;48.47;;;24.52;;
72201;SDS011;60105;54.956;73.412;2022-12-18T09:01:21;51.97;;;24.77;;
72201;SDS011;60105;54.956;73.412;2022-12-18T09:03:48;53.22;;;23.65;;
72201;SDS011;60105;54.956;73.412;2022-12-18T09:06:20;43.75;;;19.98;;
72201;SDS011;60105;54.956;73.412;2022-12-18T09:08:48;39.03;;;18.42;;
72201;SDS011;60105;54.956;73.412;2022-12-18T09:11:22;35.42;;;17.50;;
72201;SDS011;60105;54.956;73.412;2022-12-18T09:13:51;33.23;;;17.93;;
72201;SDS011;60105;54.956;73.412;2022-12-18T09:16:28;40.72;;;18.10;;
72201;SDS011;60105;54.956;73.412;2022-12-18T09:18:55;42.72;;;17.88;;
72201;SDS011;60105;54.956;73.412;2022-12-18T09:21:26;32.20;;;15.90;;
72201;SDS011;60105;54.956;73.412;2022-12-18T09:23:54;46.95;;;19.63;;
72201;SDS011;60105;54.956;73.412;2022-12-18T09:26:21;40.70;;;17.57;;
72201;SDS011;60105;54.956;73.412;2022-12-18T09:28:50;42.95;;;19.27;;
72201;SDS011;60105;54.956;73.412;2022-12-18T09:31:16;51.70;;;21.05;;
72201;SDS011;60105;54.956;73.412;2022-12-18T09:33:54;51.95;;;22.33;;
72201;SDS011;60105;54.956;73.412;2022-12-18T09:36:27;48.58;;;20.80;;
72201;SDS011;60105;54.956;73.412;2022-12-18T09:38:53;46.27;;;21.83;;
72201;SDS011;60105;54.956;73.412;2022-12-18T09:41:39;48.63;;;22.30;;
72201;SDS011;60105;54.956;73.412;2022-12-18T09:44:16;50.10;;;22.80;;
72201;SDS011;60105;54.956;73.412;2022-12-18T09:49:49;48.95;;;23.85;;
72201;SDS011;60105;54.956;73.412;2022-12-18T09:52:33;49.73;;;22.63;;
72201;SDS011;60105;54.956;73.412;2022-12-18T09:55:28;69.20;;;29.88;;
72201;SDS011;60105;54.956;73.412;2022-12-18T10:00:44;78.05;;;32.65;;
72201;SDS011;60105;54.956;73.412;2022-12-18T10:03:11;87.82;;;34.50;;
72201;SDS011;60105;54.956;73.412;2022-12-18T10:05:46;76.80;;;32.60;;
72201;SDS011;60105;54.956;73.412;2022-12-18T10:11:25;74.18;;;34.60;;
72201;SDS011;60105;54.956;73.412;2022-12-18T10:16:27;64.78;;;29.67;;
72201;SDS011;60105;54.956;73.412;2022-12-18T10:21:49;78.35;;;31.92;;
72201;SDS011;60105;54.956;73.412;2022-12-18T10:27:23;84.63;;;40.72;;
72201;SDS011;60105;54.956;73.412;2022-12-18T10:29:52;107.78;;;45.03;;
72201;SDS011;60105;54.956;73.412;2022-12-18T10:32:20;99.93;;;44.50;;
72201;SDS011;60105;54.956;73.412;2022-12-18T10:34:51;91.22;;;40.95;;
72201;SDS011;60105;54.956;73.412;2022-12-18T10:37:24;90.38;;;38.67;;
72201;SDS011;60105;54.956;73.412;2022-12-18T10:40:10;87.38;;;39.63;;
72201;SDS011;60105;54.956;73.412;2022-12-18T10:42:39;98.82;;;40.13;;
72201;SDS011;60105;54.956;73.412;2022-12-18T10:45:11;106.33;;;41.57;;
72201;SDS011;60105;54.956;73.412;2022-12-18T10:47:46;98.85;;;39.40;;
72201;SDS011;60105;54.956;73.412;2022-12-18T10:50:34;94.95;;;39.30;;
72201;SDS011;60105;54.956;73.412;2022-12-18T10:53:03;87.65;;;36.50;;
72201;SDS011;60105;54.956;73.412;2022-12-18T10:55:40;96.63;;;40.28;;
72201;SDS011;60105;54.956;73.412;2022-12-18T10:58:28;84.77;;;36.97;;
72201;SDS011;60105;54.956;73.412;2022-12-18T11:01:12;106.70;;;40.35;;
72201;SDS011;60105;54.956;73.412;2022-12-18T11:06:17;96.10;;;44.75;;
72201;SDS011;60105;54.956;73.412;2022-12-18T11:11:53;94.10;;;42.37;;
72201;SDS011;60105;54.956;73.412;2022-12-18T11:14:27;89.97;;;41.30;;
72201;SDS011;60105;54.956;73.412;2022-12-18T11:17:32;98.50;;;44.80;;
72201;SDS011;60105;54.956;73.412;2022-12-18T11:20:02;99.93;;;41.72;;
72201;SDS011;60105;54.956;73.412;2022-12-18T11:22:35;92.65;;;41.53;;
72201;SDS011;60105;54.956;73.412;2022-12-18T11:27:54;87.43;;;35.38;;
72201;SDS011;60105;54.956;73.412;2022-12-18T11:30:34;92.30;;;39.38;;
72201;SDS011;60105;54.956;73.412;2022-12-18T11:33:17;75.45;;;33.30;;
72201;SDS011;60105;54.956;73.412;2022-12-18T11:35:50;78.60;;;34.50;;
72201;SDS011;60105;54.956;73.412;2022-12-18T11:38:20;70.80;;;37.00;;
72201;SDS011;60105;54.956;73.412;2022-12-18T11:40:58;85.40;;;38.20;;
72201;SDS011;60105;54.956;73.412;2022-12-18T11:43:32;88.82;;;38.83;;
72201;SDS011;60105;54.956;73.412;2022-12-18T11:49:06;82.60;;;38.73;;
72201;SDS011;60105;54.956;73.412;2022-12-18T11:51:41;77.93;;;35.97;;
72201;SDS011;60105;54.956;73.412;2022-12-18T11:54:13;92.38;;;40.67;;
72201;SDS011;60105;54.956;73.412;2022-12-18T12:08:27;110.38;;;47.35;;
72201;SDS011;60105;54.956;73.412;2022-12-18T12:19:35;96.13;;;36.92;;
72201;SDS011;60105;54.956;73.412;2022-12-18T12:22:28;78.78;;;35.03;;
72201;SDS011;60105;54.956;73.412;2022-12-18T12:25:25;76.28;;;32.60;;
72201;SDS011;60105;54.956;73.412;2022-12-18T12:38:50;57.15;;;25.98;;
72201;SDS011;60105;54.956;73.412;2022-12-18T12:41:31;59.20;;;24.30;;
72201;SDS011;60105;54.956;73.412;2022-12-18T12:44:22;49.43;;;21.03;;
72201;SDS011;60105;54.956;73.412;2022-12-18T12:46:57;45.47;;;20.27;;
72201;SDS011;60105;54.956;73.412;2022-12-18T12:49:27;36.88;;;19.35;;
72201;SDS011;60105;54.956;73.412;2022-12-18T12:52:10;62.13;;;22.25;;
72201;SDS011;60105;54.956;73.412;2022-12-18T12:54:39;44.25;;;22.35;;
72201;SDS011;60105;54.956;73.412;2022-12-18T12:57:21;65.70;;;25.37;;
72201;SDS011;60105;54.956;73.412;2022-12-18T13:00:00;57.95;;;26.98;;
72201;SDS011;60105;54.956;73.412;2022-12-18T13:05:34;38.15;;;19.95;;
72201;SDS011;60105;54.956;73.412;2022-12-18T13:10:49;46.63;;;22.83;;
72201;SDS011;60105;54.956;73.412;2022-12-18T13:13:49;46.78;;;22.20;;
72201;SDS011;60105;54.956;73.412;2022-12-18T13:16:21;53.10;;;21.95;;
72201;SDS011;60105;54.956;73.412;2022-12-18T13:18:56;41.50;;;21.65;;
72201;SDS011;60105;54.956;73.412;2022-12-18T13:21:25;50.10;;;21.73;;
72201;SDS011;60105;54.956;73.412;2022-12-18T13:26:53;53.35;;;22.17;;
72201;SDS011;60105;54.956;73.412;2022-12-18T13:29:43;48.47;;;23.48;;
72201;SDS011;60105;54.956;73.412;2022-12-18T13:32:22;54.45;;;21.65;;
72201;SDS011;60105;54.956;73.412;2022-12-18T13:37:51;43.17;;;20.90;;
72201;SDS011;60105;54.956;73.412;2022-12-18T13:51:54;38.63;;;18.27;;
72201;SDS011;60105;54.956;73.412;2022-12-18T13:54:29;39.13;;;18.65;;
72201;SDS011;60105;54.956;73.412;2022-12-18T13:57:23;49.75;;;19.50;;
72201;SDS011;60105;54.956;73.412;2022-12-18T13:59:56;38.75;;;18.67;;
72201;SDS011;60105;54.956;73.412;2022-12-18T14:02:27;48.50;;;19.48;;
72201;SDS011;60105;54.956;73.412;2022-12-18T14:04:54;41.37;;;18.53;;
72201;SDS011;60105;54.956;73.412;2022-12-18T14:07:26;41.92;;;20.13;;
72201;SDS011;60105;54.956;73.412;2022-12-18T14:09:55;41.33;;;19.30;;
72201;SDS011;60105;54.956;73.412;2022-12-18T14:17:55;39.77;;;20.17;;
72201;SDS011;60105;54.956;73.412;2022-12-18T14:20:43;48.97;;;18.48;;
72201;SDS011;60105;54.956;73.412;2022-12-18T14:26:26;34.97;;;18.85;;
72201;SDS011;60105;54.956;73.412;2022-12-18T14:28:58;41.33;;;18.10;;
72201;SDS011;60105;54.956;73.412;2022-12-18T14:31:30;43.03;;;18.83;;
72201;SDS011;60105;54.956;73.412;2022-12-18T14:33:57;43.03;;;19.85;;
72201;SDS011;60105;54.956;73.412;2022-12-18T14:36:25;42.65;;;17.63;;
72201;SDS011;60105;54.956;73.412;2022-12-18T14:38:55;43.08;;;17.70;;
72201;SDS011;60105;54.956;73.412;2022-12-18T14:41:24;36.97;;;18.15;;
72201;SDS011;60105;54.956;73.412;2022-12-18T14:43:52;42.03;;;17.17;;
72201;SDS011;60105;54.956;73.412;2022-12-18T14:46:41;29.02;;;17.38;;
72201;SDS011;60105;54.956;73.412;2022-12-18T14:52:01;46.13;;;19.30;;
72201;SDS011;60105;54.956;73.412;2022-12-18T14:54:30;46.88;;;19.45;;
72201;SDS011;60105;54.956;73.412;2022-12-18T14:57:01;40.33;;;21.93;;
72201;SDS011;60105;54.956;73.412;2022-12-18T14:59:47;45.75;;;20.90;;
72201;SDS011;60105;54.956;73.412;2022-12-18T15:05:05;44.70;;;18.35;;
72201;SDS011;60105;54.956;73.412;2022-12-18T15:07:46;48.30;;;17.83;;
72201;SDS011;60105;54.956;73.412;2022-12-18T15:10:17;39.00;;;16.13;;
72201;SDS011;60105;54.956;73.412;2022-12-18T15:18:02;44.85;;;18.60;;
72201;SDS011;60105;54.956;73.412;2022-12-18T15:23:24;48.20;;;20.87;;
72201;SDS011;60105;54.956;73.412;2022-12-18T15:26:04;54.90;;;19.98;;
72201;SDS011;60105;54.956;73.412;2022-12-18T15:28:46;58.28;;;21.42;;
72201;SDS011;60105;54.956;73.412;2022-12-18T15:33:59;53.83;;;22.85;;
72201;SDS011;60105;54.956;73.412;2022-12-18T15:36:49;49.70;;;24.57;;
72201;SDS011;60105;54.956;73.412;2022-12-18T15:39:16;40.10;;;19.73;;
72201;SDS011;60105;54.956;73.412;2022-12-18T15:41:43;47.05;;;20.80;;
72201;SDS011;60105;54.956;73.412;2022-12-18T15:44:35;45.67;;;20.73;;
72201;SDS011;60105;54.956;73.412;2022-12-18T15:47:11;47.15;;;21.02;;
72201;SDS011;60105;54.956;73.412;2022-12-18T15:49:43;44.27;;;20.03;;
72201;SDS011;60105;54.956;73.412;2022-12-18T15:52:10;40.88;;;18.60;;
72201;SDS011;60105;54.956;73.412;2022-12-18T15:54:39;39.67;;;18.55;;
72201;SDS011;60105;54.956;73.412;2022-12-18T15:57:24;34.67;;;17.55;;
72201;SDS011;60105;54.956;73.412;2022-12-18T15:59:54;38.50;;;17.48;;
72201;SDS011;60105;54.956;73.412;2022-12-18T16:02:23;43.20;;;18.53;;
72201;SDS011;60105;54.956;73.412;2022-12-18T16:04:53;40.80;;;18.55;;
72201;SDS011;60105;54.956;73.412;2022-12-18T16:07:20;39.72;;;16.98;;
72201;SDS011;60105;54.956;73.412;2022-12-18T16:09:46;33.38;;;16.77;;
72201;SDS011;60105;54.956;73.412;2022-12-18T16:12:17;43.33;;;17.38;;
72201;SDS011;60105;54.956;73.412;2022-12-18T16:14:46;38.70;;;17.57;;
72201;SDS011;60105;54.956;73.412;2022-12-18T16:17:18;30.92;;;15.40;;
72201;SDS011;60105;54.956;73.412;2022-12-18T16:19:44;32.42;;;15.88;;
72201;SDS011;60105;54.956;73.412;2022-12-18T16:22:15;43.83;;;16.25;;
72201;SDS011;60105;54.956;73.412;2022-12-18T16:24:52;38.42;;;16.27;;
72201;SDS011;60105;54.956;73.412;2022-12-18T16:27:19;36.23;;;16.50;;
72201;SDS011;60105;54.956;73.412;2022-12-18T16:29:45;33.22;;;16.05;;
72201;SDS011;60105;54.956;73.412;2022-12-18T16:32:13;40.83;;;17.52;;
72201;SDS011;60105;54.956;73.412;2022-12-18T16:34:41;34.88;;;16.88;;
72201;SDS011;60105;54.956;73.412;2022-12-18T16:37:08;42.80;;;19.63;;
72201;SDS011;60105;54.956;73.412;2022-12-18T16:39:35;40.67;;;19.43;;
72201;SDS011;60105;54.956;73.412;2022-12-18T16:42:12;50.10;;;19.02;;
72201;SDS011;60105;54.956;73.412;2022-12-18T16:44:42;45.72;;;19.33;;
72201;SDS011;60105;54.956;73.412;2022-12-18T16:47:09;38.70;;;19.60;;